Time;durP1;ratioP1;P1;durP2;ratioP2;P2;SDS_P1;SDS_P2;PMS_P1;PMS_P2;Temp;Humidity;BMP_temperature;BMP_pressure;BME280_temperature;BME280_humidity;BME280_pressure;Samples;Min_cycle;Max_cycle;Signal;HPM_P1;HPM_P2
2021/05/05 00:02:01;;;;;;;2.67;0.40;;;6.30;99.90;;;;;;5046359;28;20029;-78
2021/05/05 00:04:27;;;;;;;1.55;0.40;;;6.40;99.90;;;;;;5031725;28;20217;-79
2021/05/05 00:06:55;;;;;;;2.75;0.50;;;6.40;99.90;;;;;;5030585;28;20037;-78
2021/05/05 00:09:21;;;;;;;3.72;0.60;;;6.40;99.90;;;;;;5030326;28;20033;-78
2021/05/05 00:11:47;;;;;;;2.35;0.40;;;6.40;99.90;;;;;;5048391;28;20076;-78
2021/05/05 00:14:14;;;;;;;1.75;0.40;;;6.40;99.90;;;;;;5013761;28;20093;-78
2021/05/05 00:16:40;;;;;;;2.30;0.40;;;6.50;99.90;;;;;;5030534;28;20033;-78
2021/05/05 00:19:06;;;;;;;2.78;0.65;;;6.40;99.90;;;;;;5030470;28;20358;-78
2021/05/05 00:21:32;;;;;;;3.67;0.60;;;6.50;99.90;;;;;;5033274;28;20085;-78
2021/05/05 00:23:58;;;;;;;7.07;0.90;;;6.60;99.90;;;;;;5030135;28;20036;-78
2021/05/05 00:26:24;;;;;;;7.75;0.80;;;6.60;99.90;;;;;;5013848;28;20021;-78
2021/05/05 00:28:50;;;;;;;4.47;0.90;;;6.60;99.90;;;;;;5013744;28;20033;-78
2021/05/05 00:31:16;;;;;;;2.53;0.55;;;6.60;99.90;;;;;;5030042;28;20057;-78
2021/05/05 00:33:43;;;;;;;6.63;1.10;;;6.60;99.90;;;;;;5011145;28;20025;-78
2021/05/05 00:36:08;;;;;;;4.20;0.63;;;6.60;99.90;;;;;;5013560;28;20021;-78
2021/05/05 00:38:34;;;;;;;5.20;0.85;;;6.60;99.90;;;;;;5029348;28;20033;-78
2021/05/05 00:41:00;;;;;;;3.13;0.65;;;6.60;99.90;;;;;;5030073;28;20041;-78
2021/05/05 00:43:25;;;;;;;5.40;0.90;;;6.60;99.90;;;;;;5013484;28;20089;-78
2021/05/05 00:45:51;;;;;;;3.83;1.13;;;6.60;99.90;;;;;;5030081;28;20040;-78
2021/05/05 00:48:17;;;;;;;5.78;1.23;;;6.60;99.90;;;;;;5029926;28;20120;-78
2021/05/05 00:50:42;;;;;;;5.60;0.82;;;6.70;99.90;;;;;;5010728;28;20116;-78
2021/05/05 00:53:08;;;;;;;6.10;1.30;;;6.60;99.90;;;;;;5013504;28;20035;-78
2021/05/05 00:55:34;;;;;;;6.82;1.27;;;6.60;99.90;;;;;;5046318;28;20104;-78
2021/05/05 00:58:00;;;;;;;9.07;1.00;;;6.60;99.90;;;;;;5029724;28;20036;-77
2021/05/05 01:00:26;;;;;;;8.80;0.80;;;6.60;99.90;;;;;;5032313;28;20045;-78
2021/05/05 01:02:52;;;;;;;5.35;0.98;;;6.70;99.90;;;;;;5029828;28;20478;-78
2021/05/05 01:05:18;;;;;;;4.95;0.70;;;6.60;99.90;;;;;;5047387;28;20039;-78
2021/05/05 01:07:48;;;;;;;3.10;0.50;;;6.60;99.90;;;;;;5047094;28;20026;-78
2021/05/05 01:10:14;;;;;;;8.35;0.90;;;6.60;99.90;;;;;;5029592;28;20097;-78
2021/05/05 01:12:41;;;;;;;8.40;1.20;;;6.60;99.90;;;;;;5029353;28;20029;-78
2021/05/05 01:15:09;;;;;;;7.10;0.85;;;6.60;99.90;;;;;;5013391;28;20441;-78
2021/05/05 01:17:35;;;;;;;7.63;0.80;;;6.60;99.90;;;;;;5029459;28;20117;-78
2021/05/05 01:20:04;;;;;;;6.90;1.40;;;6.60;99.90;;;;;;5029468;28;20057;-78
2021/05/05 01:22:30;;;;;;;4.25;1.25;;;6.60;99.90;;;;;;5029150;28;20026;-78
2021/05/05 01:24:56;;;;;;;7.53;2.17;;;6.60;99.90;;;;;;5029541;28;20096;-78
2021/05/05 01:27:22;;;;;;;6.28;1.73;;;6.60;99.90;;;;;;5012616;28;20017;-77
2021/05/05 01:29:49;;;;;;;4.38;1.50;;;6.60;99.90;;;;;;5029183;28;20029;-78
2021/05/05 01:32:16;;;;;;;7.05;1.10;;;6.50;99.90;;;;;;5012708;28;20030;-78
2021/05/05 01:34:43;;;;;;;8.88;2.10;;;6.40;99.90;;;;;;5012834;28;20032;-78
2021/05/05 01:37:10;;;;;;;5.90;1.13;;;6.40;99.90;;;;;;5015029;28;20089;-78
2021/05/05 01:39:39;;;;;;;3.58;0.45;;;6.40;99.90;;;;;;5028835;28;20056;-77
2021/05/05 01:42:05;;;;;;;4.65;0.60;;;6.40;99.90;;;;;;5011013;28;20038;-78
2021/05/05 01:44:36;;;;;;;3.90;0.50;;;6.40;99.90;;;;;;5028927;28;20026;-78
2021/05/05 01:47:04;;;;;;;1.98;0.40;;;6.40;99.90;;;;;;5027630;28;20026;-78
2021/05/05 01:49:30;;;;;;;5.60;0.60;;;6.30;99.90;;;;;;5012249;28;20025;-78
2021/05/05 01:52:00;;;;;;;2.85;0.50;;;6.30;99.90;;;;;;5012367;28;20044;-78
2021/05/05 01:54:26;;;;;;;4.15;0.60;;;6.20;99.90;;;;;;5029724;28;20029;-78
2021/05/05 01:56:52;;;;;;;7.55;0.73;;;6.10;99.90;;;;;;5011578;28;20029;-78
2021/05/05 01:59:18;;;;;;;6.85;1.08;;;6.00;99.90;;;;;;5028406;28;20393;-78
2021/05/05 02:01:44;;;;;;;5.75;1.23;;;5.90;99.90;;;;;;5028249;28;20080;-78
2021/05/05 02:04:11;;;;;;;5.68;0.73;;;5.90;99.90;;;;;;5012391;28;20025;-78
2021/05/05 02:06:59;;;;;;;5.25;0.70;;;5.80;99.90;;;;;;5014829;28;20045;-78
2021/05/05 02:09:31;;;;;;;3.58;0.30;;;5.70;99.90;;;;;;5012626;28;20049;-79
2021/05/05 02:11:57;;;;;;;3.25;0.40;;;5.60;99.90;;;;;;5045745;28;20029;-78
2021/05/05 02:14:23;;;;;;;1.45;0.28;;;5.50;99.90;;;;;;5014048;28;20025;-78
2021/05/05 02:16:57;;;;;;;3.88;0.68;;;5.50;99.90;;;;;;5028824;28;20060;-78
2021/05/05 02:19:23;;;;;;;4.68;0.30;;;5.40;99.90;;;;;;5026502;28;20030;-78
2021/05/05 02:21:50;;;;;;;6.20;0.40;;;5.40;99.90;;;;;;5045661;28;20033;-78
2021/05/05 02:24:16;;;;;;;6.22;0.50;;;5.40;99.90;;;;;;5045154;28;20547;-78
2021/05/05 02:26:41;;;;;;;4.30;0.30;;;5.40;99.90;;;;;;5011302;28;20029;-78
2021/05/05 02:29:08;;;;;;;5.75;0.40;;;5.40;99.90;;;;;;5027859;28;20025;-78
2021/05/05 02:32:10;;;;;;;8.75;0.60;;;5.30;99.90;;;;;;5027775;28;20061;-78
2021/05/05 02:34:37;;;;;;;7.85;0.57;;;5.30;99.90;;;;;;5008697;28;20044;-78
2021/05/05 02:37:09;;;;;;;6.57;0.75;;;5.20;99.90;;;;;;5047968;28;20056;-78
2021/05/05 02:39:40;;;;;;;5.10;0.30;;;5.20;99.90;;;;;;5037881;28;20053;-78
2021/05/05 02:42:08;;;;;;;4.00;0.30;;;5.20;99.90;;;;;;5024737;28;20022;-78
2021/05/05 02:44:36;;;;;;;6.47;0.50;;;5.20;99.90;;;;;;5011763;28;20061;-78
2021/05/05 02:47:02;;;;;;;8.05;0.40;;;5.20;99.90;;;;;;5025760;28;20033;-78
2021/05/05 02:49:30;;;;;;;5.95;0.40;;;5.20;99.90;;;;;;5013159;28;20097;-78
2021/05/05 02:52:02;;;;;;;6.93;0.35;;;5.10;99.90;;;;;;5013514;28;20527;-78
2021/05/05 02:54:29;;;;;;;5.65;0.32;;;5.10;99.90;;;;;;5027994;28;20116;-78
2021/05/05 02:56:56;;;;;;;4.05;0.43;;;5.10;99.90;;;;;;5010237;28;20039;-78
2021/05/05 02:59:24;;;;;;;2.85;0.40;;;5.10;99.90;;;;;;5011182;28;20051;-78
2021/05/05 03:01:50;;;;;;;7.88;0.30;;;5.10;99.90;;;;;;5014071;28;20051;-78
2021/05/05 03:04:16;;;;;;;3.30;0.47;;;5.10;99.90;;;;;;5047535;28;20024;-78
2021/05/05 03:06:41;;;;;;;2.90;0.60;;;5.20;99.90;;;;;;5027071;28;20029;-78
2021/05/05 03:09:08;;;;;;;5.57;0.55;;;5.20;99.90;;;;;;5027610;28;20021;-79
2021/05/05 03:11:34;;;;;;;7.35;0.40;;;5.20;99.90;;;;;;5027176;28;20029;-78
2021/05/05 03:14:00;;;;;;;7.00;0.50;;;5.20;99.90;;;;;;5027363;28;20080;-78
2021/05/05 03:16:26;;;;;;;2.38;0.50;;;5.20;99.90;;;;;;5038744;28;20041;-78
2021/05/05 03:18:52;;;;;;;5.60;0.70;;;5.20;99.90;;;;;;5010742;28;20474;-78
2021/05/05 03:21:19;;;;;;;6.68;0.40;;;5.10;99.90;;;;;;5043608;28;20085;-78
2021/05/05 03:23:45;;;;;;;4.38;0.35;;;5.10;99.90;;;;;;5043666;28;20097;-78
2021/05/05 03:26:10;;;;;;;3.97;0.40;;;5.20;99.90;;;;;;5027155;28;20033;-79
2021/05/05 03:28:36;;;;;;;5.45;0.60;;;5.20;99.90;;;;;;5010592;28;20099;-78
2021/05/05 03:31:02;;;;;;;8.68;0.68;;;5.20;99.90;;;;;;5032569;28;20052;-79
2021/05/05 03:33:28;;;;;;;5.55;1.27;;;5.20;99.90;;;;;;5027077;28;20024;-78
2021/05/05 03:35:54;;;;;;;6.68;0.60;;;5.20;99.90;;;;;;5027556;28;20052;-78
2021/05/05 03:38:19;;;;;;;6.47;0.80;;;5.30;99.90;;;;;;5031198;28;20021;-78
2021/05/05 03:40:45;;;;;;;7.82;0.70;;;5.30;99.90;;;;;;5014760;28;20025;-78
2021/05/05 03:43:11;;;;;;;5.40;0.98;;;5.30;99.90;;;;;;5048612;28;20032;-78
2021/05/05 03:45:37;;;;;;;6.45;1.15;;;5.30;99.90;;;;;;5014845;28;20025;-78
2021/05/05 03:48:03;;;;;;;5.60;0.90;;;5.30;99.90;;;;;;5014542;28;20018;-78
2021/05/05 03:50:29;;;;;;;3.80;0.63;;;5.30;99.90;;;;;;5030909;28;20082;-78
2021/05/05 03:52:55;;;;;;;9.35;1.30;;;5.30;99.90;;;;;;5031046;28;20116;-78
2021/05/05 03:55:21;;;;;;;9.23;0.80;;;5.20;99.90;;;;;;5014581;28;20092;-78
2021/05/05 03:57:47;;;;;;;8.40;1.42;;;5.20;99.90;;;;;;5030636;28;20037;-78
2021/05/05 04:00:13;;;;;;;5.75;0.70;;;5.20;99.90;;;;;;5047238;28;20044;-78
2021/05/05 04:02:41;;;;;;;4.18;0.98;;;5.20;99.90;;;;;;5030776;28;20022;-78
2021/05/05 04:05:07;;;;;;;6.97;1.20;;;5.20;99.90;;;;;;5030949;28;20061;-78
2021/05/05 04:07:33;;;;;;;7.05;1.73;;;5.10;99.90;;;;;;5033013;28;20029;-77
2021/05/05 04:09:59;;;;;;;7.25;1.88;;;5.20;99.90;;;;;;5030522;28;20101;-78
2021/05/05 04:12:28;;;;;;;7.00;1.52;;;5.20;99.90;;;;;;5048091;28;20022;-78
2021/05/05 04:14:54;;;;;;;6.83;1.57;;;5.20;99.90;;;;;;5028379;28;20029;-78
2021/05/05 04:17:20;;;;;;;8.30;1.83;;;5.20;99.90;;;;;;5030393;28;20099;-77
2021/05/05 04:19:45;;;;;;;6.03;1.65;;;5.20;99.90;;;;;;5030329;28;20029;-78
2021/05/05 04:22:11;;;;;;;7.10;2.17;;;5.20;99.90;;;;;;5047796;28;20121;-78
2021/05/05 04:24:37;;;;;;;5.38;1.75;;;5.20;99.90;;;;;;5029846;28;20025;-77
2021/05/05 04:27:06;;;;;;;7.88;1.67;;;5.40;99.90;;;;;;5029602;28;20029;-77
2021/05/05 04:29:32;;;;;;;7.03;1.58;;;5.40;99.90;;;;;;5044298;28;20064;-78
2021/05/05 04:31:58;;;;;;;8.90;1.98;;;5.40;99.90;;;;;;5013102;28;20034;-81
2021/05/05 04:34:25;;;;;;;9.60;2.20;;;5.50;99.90;;;;;;5009973;28;20036;-80
2021/05/05 04:36:51;;;;;;;5.50;0.90;;;5.40;99.90;;;;;;5013350;28;20029;-79
2021/05/05 04:39:17;;;;;;;8.27;1.65;;;5.40;99.90;;;;;;5029387;28;20048;-79
2021/05/05 04:41:42;;;;;;;8.18;1.60;;;5.50;99.90;;;;;;5029373;28;20029;-79
2021/05/05 04:44:08;;;;;;;12.35;1.48;;;5.50;99.90;;;;;;5026734;28;20036;-79
2021/05/05 04:46:34;;;;;;;11.90;1.30;;;5.50;99.90;;;;;;5014269;28;20111;-79
2021/05/05 04:49:00;;;;;;;8.15;1.17;;;5.60;99.90;;;;;;5029010;28;20555;-79
2021/05/05 04:51:26;;;;;;;10.50;1.55;;;5.60;99.90;;;;;;5028943;28;20045;-78
2021/05/05 04:53:52;;;;;;;6.97;0.95;;;5.60;99.90;;;;;;5029095;28;20040;-79
2021/05/05 04:56:18;;;;;;;10.32;1.10;;;5.60;99.90;;;;;;5012558;28;20041;-79
2021/05/05 04:58:46;;;;;;;14.57;1.70;;;5.70;99.90;;;;;;5046767;28;20025;-79
2021/05/05 05:01:12;;;;;;;9.00;1.08;;;5.70;99.90;;;;;;5014501;28;20048;-80
2021/05/05 05:03:38;;;;;;;10.15;2.00;;;5.70;99.90;;;;;;5025996;28;20466;-79
2021/05/05 05:06:03;;;;;;;7.65;1.98;;;5.70;99.90;;;;;;5030492;28;20042;-79
2021/05/05 05:08:29;;;;;;;12.77;2.63;;;5.70;99.90;;;;;;5027259;28;20383;-79
2021/05/05 05:10:55;;;;;;;9.57;1.70;;;5.70;99.90;;;;;;5028432;28;20050;-79
2021/05/05 05:13:21;;;;;;;9.20;2.15;;;5.70;99.90;;;;;;5027327;28;20026;-79
2021/05/05 05:15:46;;;;;;;8.88;3.00;;;5.60;99.90;;;;;;5027479;28;20036;-79
2021/05/05 05:18:12;;;;;;;12.23;3.63;;;5.60;99.90;;;;;;5028456;28;20033;-78
2021/05/05 05:20:39;;;;;;;10.20;2.70;;;5.60;99.90;;;;;;5011799;28;20089;-79
2021/05/05 05:23:04;;;;;;;8.98;2.67;;;5.60;99.90;;;;;;5031326;28;20029;-79
2021/05/05 05:25:30;;;;;;;8.63;2.90;;;5.70;99.90;;;;;;5030900;28;20064;-79
2021/05/05 05:27:56;;;;;;;7.82;2.25;;;5.60;99.90;;;;;;5028273;28;20077;-79
2021/05/05 05:30:22;;;;;;;8.82;2.08;;;5.60;99.90;;;;;;4999009;28;20460;-80
2021/05/05 05:32:49;;;;;;;12.18;2.08;;;5.60;99.90;;;;;;5010947;28;20081;-80
2021/05/05 05:35:15;;;;;;;5.00;1.73;;;5.60;99.90;;;;;;5027475;28;20120;-80
2021/05/05 05:37:41;;;;;;;6.07;1.60;;;5.60;99.90;;;;;;5027273;28;20107;-80
2021/05/05 05:40:08;;;;;;;6.85;2.33;;;5.50;99.90;;;;;;5028124;28;20034;-80
2021/05/05 05:42:34;;;;;;;10.38;1.92;;;5.50;99.90;;;;;;5017471;28;20025;-80
2021/05/05 05:45:00;;;;;;;9.13;1.80;;;5.50;99.90;;;;;;5030844;28;20112;-81
2021/05/05 05:47:25;;;;;;;5.93;1.38;;;5.50;99.90;;;;;;5011559;28;20485;-80
2021/05/05 05:49:52;;;;;;;7.57;1.45;;;5.60;99.90;;;;;;5027904;28;20057;-80
2021/05/05 05:52:17;;;;;;;8.38;1.73;;;5.60;99.90;;;;;;5031671;28;20060;-81
2021/05/05 05:54:43;;;;;;;6.85;1.70;;;5.60;99.90;;;;;;5028144;28;20025;-80
2021/05/05 05:57:09;;;;;;;10.27;2.13;;;5.60;99.90;;;;;;5027536;28;20036;-80
2021/05/05 05:59:35;;;;;;;5.00;1.38;;;5.50;99.90;;;;;;5007285;28;20049;-80
2021/05/05 06:02:01;;;;;;;5.70;1.20;;;5.60;99.90;;;;;;5011537;28;20053;-81
2021/05/05 06:04:27;;;;;;;6.88;1.63;;;5.70;99.90;;;;;;5011233;28;20465;-81
2021/05/05 06:06:52;;;;;;;10.30;1.65;;;5.80;99.90;;;;;;5027516;28;20040;-80
2021/05/05 06:09:18;;;;;;;9.82;1.80;;;6.00;99.90;;;;;;5030493;28;20026;-80
2021/05/05 06:11:43;;;;;;;8.75;1.55;;;6.00;99.90;;;;;;5044844;28;20049;-80
2021/05/05 06:14:09;;;;;;;4.70;1.15;;;6.10;99.90;;;;;;5011411;28;20032;-80
2021/05/05 06:16:35;;;;;;;9.43;1.90;;;6.20;99.90;;;;;;5008372;28;20025;-81
2021/05/05 06:19:01;;;;;;;7.05;1.08;;;6.40;99.90;;;;;;5030266;28;20100;-81
2021/05/05 06:21:26;;;;;;;5.65;0.93;;;6.40;99.90;;;;;;5008135;28;20026;-80
2021/05/05 06:23:53;;;;;;;8.27;1.30;;;6.50;99.90;;;;;;5013364;28;20034;-81
2021/05/05 06:26:19;;;;;;;7.57;1.10;;;6.30;99.90;;;;;;5027787;28;20028;-81
2021/05/05 06:28:45;;;;;;;8.05;1.48;;;6.30;99.90;;;;;;5030340;28;20041;-81
2021/05/05 06:31:11;;;;;;;4.20;1.05;;;6.40;99.90;;;;;;5027121;28;20036;-81
2021/05/05 06:33:37;;;;;;;3.50;0.80;;;6.40;99.90;;;;;;5013097;28;20493;-80
2021/05/05 06:36:04;;;;;;;5.30;0.80;;;6.30;99.90;;;;;;5027338;28;20033;-80
2021/05/05 06:38:30;;;;;;;6.63;0.85;;;6.40;99.90;;;;;;5013742;28;20089;-81
2021/05/05 06:40:55;;;;;;;6.65;0.85;;;6.20;99.90;;;;;;5013368;28;20056;-81
2021/05/05 06:43:21;;;;;;;4.70;0.80;;;6.30;99.90;;;;;;5026989;28;20025;-80
2021/05/05 06:45:47;;;;;;;4.22;0.70;;;6.40;99.90;;;;;;5013084;28;20060;-81
2021/05/05 06:48:12;;;;;;;5.35;0.50;;;6.70;99.90;;;;;;5024052;28;20032;-81
2021/05/05 06:50:38;;;;;;;6.03;0.63;;;6.50;99.90;;;;;;5023826;28;20489;-80
2021/05/05 06:53:04;;;;;;;4.72;0.65;;;6.70;99.90;;;;;;5027151;28;20476;-81
2021/05/05 06:55:30;;;;;;;5.28;0.82;;;7.00;99.90;;;;;;5012985;28;20056;-80
2021/05/05 06:57:56;;;;;;;8.95;0.70;;;6.90;99.90;;;;;;5026703;28;20029;-80
2021/05/05 07:00:22;;;;;;;3.35;0.50;;;7.20;99.90;;;;;;5012996;28;20054;-81
2021/05/05 07:02:47;;;;;;;4.78;0.70;;;7.10;99.90;;;;;;5047221;28;20024;-81
2021/05/05 07:05:13;;;;;;;7.68;0.70;;;7.20;99.90;;;;;;5043291;28;20033;-80
2021/05/05 07:07:39;;;;;;;9.95;0.70;;;7.50;99.90;;;;;;5025654;23;20164;-81
2021/05/05 07:10:06;;;;;;;5.65;0.50;;;7.50;99.90;;;;;;5002365;28;20070;-81
2021/05/05 07:12:32;;;;;;;6.20;0.50;;;7.20;99.90;;;;;;4994117;28;20034;-82
2021/05/05 07:14:58;;;;;;;6.95;0.52;;;6.70;99.90;;;;;;5019819;28;20144;-81
2021/05/05 07:17:23;;;;;;;3.55;0.30;;;6.60;99.90;;;;;;4987088;28;20023;-81
2021/05/05 07:19:50;;;;;;;3.92;0.50;;;7.10;99.90;;;;;;5019644;28;20034;-81
2021/05/05 07:22:19;;;;;;;3.45;0.40;;;7.30;99.90;;;;;;4987804;28;20030;-81
2021/05/05 07:24:45;;;;;;;7.38;0.65;;;7.10;99.90;;;;;;5012398;28;20033;-81
2021/05/05 07:27:10;;;;;;;3.72;0.55;;;7.20;99.90;;;;;;4984568;28;20030;-81
2021/05/05 07:29:36;;;;;;;3.25;0.47;;;7.50;99.90;;;;;;4981302;28;20053;-81
2021/05/05 07:32:02;;;;;;;4.55;0.70;;;7.20;99.90;;;;;;5002459;28;20033;-80
2021/05/05 07:34:28;;;;;;;3.78;0.63;;;7.20;99.90;;;;;;5019208;28;20055;-81
2021/05/05 07:37:00;;;;;;;3.00;0.88;;;7.30;99.90;;;;;;4984607;28;20101;-81
2021/05/05 07:39:41;;;;;;;5.50;0.60;;;7.60;99.90;;;;;;4985206;28;20039;-82
2021/05/05 07:42:43;;;;;;;4.53;0.80;;;7.50;99.90;;;;;;4990606;28;20034;-81
2021/05/05 07:47:38;;;;;;;6.18;0.82;;;7.50;99.90;;;;;;5000579;28;20038;-81
2021/05/05 07:50:05;;;;;;;4.72;0.75;;;7.30;99.90;;;;;;5020735;28;20045;-82
2021/05/05 07:52:31;;;;;;;4.38;0.65;;;7.40;99.90;;;;;;5015348;28;20031;-81
2021/05/05 07:54:57;;;;;;;7.90;0.85;;;7.40;99.90;;;;;;5020439;28;20030;-81
2021/05/05 07:57:22;;;;;;;3.97;1.05;;;7.40;99.90;;;;;;5019938;28;20034;-81
2021/05/05 07:59:48;;;;;;;4.57;0.77;;;7.50;99.90;;;;;;5003613;28;20060;-81
2021/05/05 08:02:14;;;;;;;7.63;0.85;;;7.70;99.90;;;;;;5015008;28;20041;-81
2021/05/05 08:04:48;;;;;;;6.70;0.90;;;7.80;99.90;;;;;;5020126;28;20056;-81
2021/05/05 08:07:18;;;;;;;10.70;0.82;;;7.60;99.90;;;;;;5016834;28;20069;-81
2021/05/05 08:09:44;;;;;;;6.70;0.60;;;7.50;99.90;;;;;;5016737;28;20452;-81
2021/05/05 08:12:11;;;;;;;6.32;0.70;;;7.80;99.90;;;;;;5019993;28;20034;-81
2021/05/05 08:14:37;;;;;;;5.65;0.98;;;8.50;99.90;;;;;;5022758;28;20021;-81
2021/05/05 08:17:03;;;;;;;5.18;1.17;;;8.70;99.90;;;;;;5017037;28;20040;-80
2021/05/05 08:19:28;;;;;;;5.97;0.40;;;8.60;99.90;;;;;;5019978;28;20026;-80
2021/05/05 08:21:54;;;;;;;5.03;0.50;;;8.20;99.90;;;;;;5017700;28;20022;-81
2021/05/05 08:24:19;;;;;;;6.30;0.60;;;7.90;99.90;;;;;;5006413;28;20037;-81
2021/05/05 08:26:46;;;;;;;3.75;0.50;;;7.80;99.90;;;;;;5020835;28;20066;-81
2021/05/05 08:29:12;;;;;;;9.77;0.80;;;7.30;99.90;;;;;;5018560;28;20036;-81
2021/05/05 08:31:37;;;;;;;2.53;0.70;;;7.20;99.90;;;;;;5020457;28;20202;-81
2021/05/05 08:34:03;;;;;;;2.40;0.30;;;6.90;99.90;;;;;;5026224;28;20170;-82
2021/05/05 08:36:29;;;;;;;2.83;0.30;;;6.50;99.90;;;;;;4993692;28;20084;-81
2021/05/05 08:38:55;;;;;;;3.38;0.52;;;6.60;99.90;;;;;;5020435;28;20022;-81
2021/05/05 08:41:21;;;;;;;5.85;0.40;;;6.60;99.90;;;;;;5022977;28;20541;-81
2021/05/05 08:43:47;;;;;;;6.03;0.40;;;6.90;99.90;;;;;;5020479;28;20031;-81
2021/05/05 08:46:14;;;;;;;3.88;0.30;;;6.80;99.90;;;;;;5022995;28;20030;-81
2021/05/05 08:48:39;;;;;;;2.90;0.30;;;7.00;99.90;;;;;;5024242;28;20158;-82
2021/05/05 08:51:10;;;;;;;6.28;0.50;;;7.80;99.90;;;;;;5022688;28;20077;-82
2021/05/05 08:53:36;;;;;;;5.53;0.38;;;7.90;99.90;;;;;;5009504;28;20037;-82
2021/05/05 08:56:02;;;;;;;5.88;0.60;;;7.80;99.90;;;;;;5016459;28;20141;-82
2021/05/05 08:58:28;;;;;;;4.63;0.30;;;7.80;99.90;;;;;;5018342;28;20041;-81
2021/05/05 09:00:54;;;;;;;6.40;0.50;;;7.70;99.90;;;;;;4986987;28;20053;-82
2021/05/05 09:03:30;;;;;;;3.75;0.30;;;8.00;99.90;;;;;;4985084;28;20099;-81
2021/05/05 09:06:16;;;;;;;3.67;0.30;;;8.00;99.90;;;;;;4989365;28;20034;-81
2021/05/05 09:08:48;;;;;;;3.47;0.25;;;8.10;99.90;;;;;;4948008;29;20788;-81
2021/05/05 09:11:14;;;;;;;2.40;0.20;;;7.80;99.90;;;;;;4963704;29;20341;-81
2021/05/05 09:13:44;;;;;;;3.85;0.30;;;8.30;99.90;;;;;;4965902;29;20036;-82
2021/05/05 09:16:11;;;;;;;4.45;0.35;;;8.60;99.90;;;;;;4947063;29;20031;-82
2021/05/05 09:19:12;;;;;;;4.03;0.40;;;8.80;99.90;;;;;;4965864;28;20063;-82
2021/05/05 09:21:41;;;;;;;7.30;0.40;;;8.80;99.90;;;;;;4890021;29;20061;-81
2021/05/05 09:24:29;;;;;;;8.75;0.40;;;9.00;99.90;;;;;;4874349;29;20041;-81
2021/05/05 09:26:57;;;;;;;2.45;0.60;;;8.60;99.90;;;;;;4872709;29;20082;-81
2021/05/05 09:29:42;;;;;;;3.63;0.30;;;8.20;99.90;;;;;;4874181;29;20060;-82
2021/05/05 09:32:10;;;;;;;5.45;0.30;;;8.10;99.90;;;;;;4874451;29;20584;-82
2021/05/05 09:34:36;;;;;;;1.65;0.30;;;8.50;99.90;;;;;;4874141;29;20123;-82
2021/05/05 09:37:07;;;;;;;5.53;0.40;;;8.50;99.90;;;;;;4873504;29;20049;-82
2021/05/05 09:39:35;;;;;;;4.10;0.30;;;8.50;99.90;;;;;;4858793;29;21702;-81
2021/05/05 09:42:01;;;;;;;6.88;0.57;;;8.60;99.90;;;;;;4889692;29;20478;-82
2021/05/05 09:44:28;;;;;;;7.35;0.45;;;8.70;99.90;;;;;;4889590;29;20033;-81
2021/05/05 09:46:57;;;;;;;7.05;0.45;;;9.20;99.90;;;;;;4904391;29;20047;-82
2021/05/05 09:49:37;;;;;;;4.30;0.40;;;8.40;99.90;;;;;;4895132;29;20115;-82
2021/05/05 09:52:19;;;;;;;5.70;0.30;;;8.10;99.90;;;;;;4910034;29;20040;-81
2021/05/05 09:54:59;;;;;;;3.47;0.30;;;8.00;99.90;;;;;;4920822;28;20102;-81
2021/05/05 09:57:30;;;;;;;8.10;0.40;;;8.50;99.90;;;;;;5011391;28;20152;-81
2021/05/05 10:00:03;;;;;;;5.70;0.73;;;8.60;99.90;;;;;;5024659;28;20030;-81
2021/05/05 10:02:50;;;;;;;5.68;0.30;;;8.80;99.90;;;;;;4997170;28;20046;-82
2021/05/05 10:05:23;;;;;;;6.47;0.30;;;9.00;99.90;;;;;;4983404;28;20058;-82
2021/05/05 10:07:57;;;;;;;7.18;0.40;;;8.90;99.90;;;;;;4986428;28;20069;-82
2021/05/05 10:10:28;;;;;;;4.93;0.45;;;8.80;99.90;;;;;;5021413;28;20044;-82
2021/05/05 10:12:57;;;;;;;2.17;0.30;;;9.20;99.90;;;;;;5019213;28;20068;-81
2021/05/05 10:15:24;;;;;;;4.68;0.40;;;9.60;99.90;;;;;;4993058;28;20168;-82
2021/05/05 10:17:52;;;;;;;7.47;0.30;;;9.60;99.90;;;;;;4991231;28;20110;-83
2021/05/05 10:20:22;;;;;;;3.58;0.25;;;9.30;99.90;;;;;;4980935;28;20076;-82
2021/05/05 10:22:52;;;;;;;9.63;0.30;;;9.00;99.90;;;;;;5002853;28;20030;-81
2021/05/05 10:25:18;;;;;;;;;;;9.00;99.90;;;;;;5000391;28;20116;-81
2021/05/05 10:27:44;;;;;;;6.15;0.30;;;9.30;99.90;;;;;;5022214;28;19910;-81
2021/05/05 10:30:14;;;;;;;4.07;0.20;;;9.00;99.90;;;;;;4985272;28;20691;-81
2021/05/05 10:32:45;;;;;;;4.35;0.28;;;8.70;99.90;;;;;;4974245;28;20098;-81
2021/05/05 10:35:15;;;;;;;6.78;0.85;;;8.90;99.90;;;;;;5021281;28;20037;-82
2021/05/05 10:37:49;;;;;;;4.38;0.30;;;8.80;99.90;;;;;;5023740;28;20068;-81
2021/05/05 10:40:23;;;;;;;5.05;0.35;;;9.30;99.90;;;;;;5018711;28;20034;-82
2021/05/05 10:42:57;;;;;;;4.80;0.20;;;9.40;99.90;;;;;;4988728;28;20041;-82
2021/05/05 10:45:35;;;;;;;4.20;0.65;;;9.80;99.90;;;;;;5020086;28;20045;-82
2021/05/05 10:48:05;;;;;;;6.07;0.45;;;10.50;99.90;;;;;;5016668;28;20028;-82
2021/05/05 10:50:53;;;;;;;7.88;0.32;;;10.20;99.90;;;;;;5020904;28;20069;-82
2021/05/05 10:53:24;;;;;;;5.43;0.30;;;10.10;99.90;;;;;;5020854;28;20050;-82
2021/05/05 10:55:54;;;;;;;4.65;0.30;;;9.80;99.90;;;;;;5020679;28;20030;-81
2021/05/05 10:58:25;;;;;;;5.82;0.40;;;9.90;99.90;;;;;;5016163;28;20040;-81
2021/05/05 11:01:07;;;;;;;5.75;0.52;;;11.20;99.90;;;;;;4984984;28;20031;-80
2021/05/05 11:03:42;;;;;;;2.50;0.35;;;10.40;99.90;;;;;;4980218;28;20086;-80
2021/05/05 11:09:12;;;;;;;8.15;0.50;;;10.90;99.90;;;;;;5010815;28;20064;-80
2021/05/05 11:11:52;;;;;;;2.13;0.30;;;11.10;99.90;;;;;;5002476;28;20490;-81
2021/05/05 11:14:24;;;;;;;;;;;10.80;99.90;;;;;;4984481;28;20034;-81
2021/05/05 11:17:09;;;;;;;4.45;0.40;;;10.90;99.90;;;;;;5007448;28;19910;-80
2021/05/05 11:19:38;;;;;;;5.22;0.50;;;10.20;99.90;;;;;;4987324;28;20026;-81
2021/05/05 11:22:27;;;;;;;5.43;0.47;;;10.40;99.90;;;;;;4974001;28;20030;-80
2021/05/05 11:24:53;;;;;;;10.05;0.50;;;10.80;99.90;;;;;;4992129;28;20050;-80
2021/05/05 11:27:45;;;;;;;6.85;0.80;;;10.70;99.90;;;;;;5023030;28;20029;-80
2021/05/05 11:30:33;;;;;;;6.22;0.40;;;11.10;99.90;;;;;;4973161;28;20057;-80
2021/05/05 11:32:59;;;;;;;4.38;0.30;;;10.70;99.90;;;;;;5001322;28;20036;-80
2021/05/05 11:35:30;;;;;;;9.02;0.40;;;11.30;99.90;;;;;;5001205;28;20026;-80
2021/05/05 11:38:09;;;;;;;5.47;0.30;;;10.70;99.90;;;;;;5006644;28;20093;-81
2021/05/05 11:40:35;;;;;;;5.72;0.40;;;10.60;99.90;;;;;;5017272;28;20480;-80
2021/05/05 11:43:18;;;;;;;7.47;0.47;;;10.10;99.90;;;;;;4986338;28;20053;-80
2021/05/05 11:45:49;;;;;;;4.97;0.50;;;10.30;99.90;;;;;;5004816;28;20352;-80
2021/05/05 11:48:24;;;;;;;8.25;0.50;;;10.40;99.90;;;;;;4985121;28;20113;-80
2021/05/05 11:50:50;;;;;;;5.25;0.40;;;10.00;99.90;;;;;;5004613;28;20526;-81
2021/05/05 11:53:28;;;;;;;3.25;0.25;;;9.60;99.90;;;;;;5006550;28;20050;-80
2021/05/05 11:55:53;;;;;;;3.92;0.40;;;7.50;99.90;;;;;;5000938;28;20034;-80
2021/05/05 11:58:22;;;;;;;4.03;0.30;;;6.90;99.90;;;;;;5009716;28;20060;-79
2021/05/05 12:00:48;;;;;;;9.23;0.40;;;6.80;99.90;;;;;;4973802;28;20066;-80
2021/05/05 12:03:13;;;;;;;4.30;0.30;;;7.20;99.90;;;;;;5021173;28;20497;-79
2021/05/05 12:05:59;;;;;;;5.93;0.32;;;7.60;99.90;;;;;;5004715;28;20069;-81
2021/05/05 12:08:27;;;;;;;5.03;0.40;;;7.70;99.90;;;;;;4943144;29;20051;-80
2021/05/05 12:11:01;;;;;;;4.20;0.50;;;7.70;99.90;;;;;;4951821;29;20056;-80
2021/05/05 12:13:29;;;;;;;13.73;0.70;;;7.90;99.90;;;;;;4945409;29;20043;-80
2021/05/05 12:16:05;;;;;;;8.07;0.52;;;8.00;99.90;;;;;;4961464;29;20043;-80
2021/05/05 12:18:35;;;;;;;8.73;0.50;;;8.20;99.90;;;;;;4946055;29;20535;-80
2021/05/05 12:21:11;;;;;;;;;;;8.50;99.90;;;;;;4957449;29;20042;-80
2021/05/05 12:23:44;;;;;;;8.35;0.50;;;9.10;99.90;;;;;;4949984;29;19939;-80
2021/05/05 12:26:29;;;;;;;10.55;0.50;;;9.10;99.90;;;;;;4959813;29;20473;-81
2021/05/05 12:28:57;;;;;;;11.70;0.55;;;9.00;99.90;;;;;;4938701;29;20027;-80
2021/05/05 12:31:24;;;;;;;12.65;0.55;;;9.20;99.90;;;;;;4941811;29;20075;-80
2021/05/05 12:33:50;;;;;;;9.07;0.70;;;9.10;99.90;;;;;;4931550;29;20046;-80
2021/05/05 12:36:26;;;;;;;8.88;0.50;;;10.10;99.90;;;;;;4942260;29;20040;-80
2021/05/05 12:38:54;;;;;;;10.60;0.50;;;10.10;99.90;;;;;;4949334;29;20043;-79
2021/05/05 12:41:38;;;;;;;9.00;0.63;;;10.30;99.90;;;;;;4947029;29;20038;-80
2021/05/05 12:44:04;;;;;;;11.02;0.75;;;10.80;99.90;;;;;;4960252;29;20092;-81
2021/05/05 12:46:55;;;;;;;9.88;0.68;;;11.20;99.90;;;;;;4983044;28;20034;-80
2021/05/05 12:49:35;;;;;;;8.48;0.50;;;10.10;99.90;;;;;;5009763;28;20117;-80
2021/05/05 12:52:07;;;;;;;8.82;0.60;;;9.90;99.90;;;;;;5025413;28;20084;-80
2021/05/05 12:54:42;;;;;;;7.30;0.55;;;10.20;99.90;;;;;;5009983;28;20022;-81
2021/05/05 12:57:19;;;;;;;5.78;0.50;;;10.40;99.90;;;;;;5002712;28;20484;-81
2021/05/05 12:59:47;;;;;;;8.23;0.70;;;9.80;99.90;;;;;;5009493;28;20125;-81
2021/05/05 13:02:22;;;;;;;6.97;0.93;;;9.30;99.90;;;;;;5019054;28;20038;-80
2021/05/05 13:04:49;;;;;;;8.70;0.52;;;8.90;99.90;;;;;;5006632;28;20101;-80
2021/05/05 13:07:30;;;;;;;8.73;0.50;;;8.50;99.90;;;;;;4990234;28;20049;-81
2021/05/05 13:10:19;;;;;;;6.30;1.08;;;8.20;99.90;;;;;;5002596;28;20065;-80